EGGD/BRS METAR and TAF weather

Enter ICAO airport designator
Station Type Date Time Source
EGGD METAR 2019/07/20 19:50 UTC NOAA

EGGD 201950Z AUTO 26013KT 9999 NCD 15/12 Q1015


Station Type Date Time Source
EGGD Decoded METAR 2019/07/20 19:50 UTC NOAA

Bristol / Lulsgate , United Kingdom (EGGD) 51-23N 002-43W
Jul 20, 2019 - 03:50 PM EDT / 2019.07.20 1950 UTC
Wind: from the W (260 degrees) at 15 MPH (13 KT):0
Visibility: greater than 7 mile(s):0
Temperature: 59 F (15 C)
Dew Point: 53 F (12 C)
Relative Humidity: 82%
Pressure (altimeter): 29.97 in. Hg (1015 hPa)
ob: EGGD 201950Z AUTO 26013KT 9999 NCD 15/12 Q1015
cycle: 20

Station Type Date Time Source
EGGD TAF 2019/07/20 18:06 UTC NOAA

TAF EGGD 201656Z 2018/2118 26015KT 9999 SCT030
BECMG 2022/2101 23005KT PROB30
TEMPO 2100/2108 8000 BKN010

Example: see airport list